Wetterdaten: Montag, 12.10.2015
Datum Zeit Temp. A. Feuchte A. Luftdruck Regen Wind Richtung Richtung Sonnenschein ET UV Solar Taupunkt Windchill Windben Empfang
12.10.2015 00:01 4,4 C 75 % 1015,8 hPa 0,0 l/m 0,0 km/h (0 Bft) O-NO 65 0 min 0,000 mm 0,0 UV-I 0 W/m 0,4 C 4,4 C 0,0 km/h (0 Bft) 0,00 %
12.10.2015 00:06 4,2 C 76 % 1015,8 hPa 0,0 l/m 0,0 km/h (0 Bft) O-NO 66 0 min 0,000 mm 0,0 UV-I 0 W/m 0,4 C 4,2 C 0,0 km/h (0 Bft) 0,00 %
12.10.2015 00:11 4,1 C 76 % 1015,8 hPa 0,0 l/m 0,0 km/h (0 Bft) O-NO 63 0 min 0,000 mm 0,0 UV-I 0 W/m 0,3 C 4,1 C 0,0 km/h (0 Bft) 0,00 %
12.10.2015 00:16 4,0 C 76 % 1015,8 hPa 0,0 l/m 4,3 km/h (1 Bft) O-SO 102 0 min 0,000 mm 0,0 UV-I 0 W/m 0,2 C 4,0 C 7,9 km/h (2 Bft) 0,00 %
12.10.2015 00:21 3,9 C 78 % 1015,8 hPa 0,0 l/m 0,0 km/h (0 Bft) NO 53 0 min 0,000 mm 0,0 UV-I 0 W/m 0,4 C 3,9 C 0,0 km/h (0 Bft) 0,00 %
12.10.2015 00:26 3,7 C 78 % 1015,8 hPa 0,0 l/m 1,4 km/h (1 Bft) O-NO 63 0 min 0,000 mm 0,0 UV-I 0 W/m 0,2 C 3,7 C 4,0 km/h (1 Bft) 0,00 %
12.10.2015 00:31 3,6 C 78 % 1015,8 hPa 0,0 l/m 0,0 km/h (0 Bft) O-NO 73 0 min 0,000 mm 0,0 UV-I 0 W/m 0,1 C 3,6 C 0,0 km/h (0 Bft) 0,00 %
12.10.2015 00:36 3,5 C 78 % 1015,8 hPa 0,0 l/m 0,0 km/h (0 Bft) O-NO 66 0 min 0,000 mm 0,0 UV-I 0 W/m 0,0 C 3,5 C 0,0 km/h (0 Bft) 0,00 %
12.10.2015 00:41 3,5 C 78 % 1015,7 hPa 0,0 l/m 4,3 km/h (1 Bft) O-NO 71 0 min 0,000 mm 0,0 UV-I 0 W/m 0,0 C 3,5 C 7,9 km/h (2 Bft) 0,00 %
12.10.2015 00:46 3,4 C 78 % 1015,7 hPa 0,0 l/m 0,0 km/h (0 Bft) NO 39 0 min 0,000 mm 0,0 UV-I 0 W/m -0,1 C 3,4 C 0,0 km/h (0 Bft) 0,00 %
12.10.2015 00:51 3,4 C 78 % 1015,7 hPa 0,0 l/m 2,9 km/h (1 Bft) O-NO 69 0 min 0,000 mm 0,0 UV-I 0 W/m -0,1 C 3,4 C 7,9 km/h (2 Bft) 0,00 %
12.10.2015 00:56 3,4 C 78 % 1015,8 hPa 0,0 l/m 9,0 km/h (2 Bft) O-NO 75 0 min 0,000 mm 0,0 UV-I 0 W/m -0,1 C 1,1 C 11,9 km/h (2 Bft) 0,00 %
12.10.2015 01:01 3,3 C 79 % 1015,8 hPa 0,0 l/m 1,8 km/h (1 Bft) O-NO 60 0 min 0,000 mm 0,0 UV-I 0 W/m 0,0 C 3,3 C 4,0 km/h (1 Bft) 0,00 %
12.10.2015 01:06 3,2 C 80 % 1015,8 hPa 0,0 l/m 0,0 km/h (0 Bft) O-NO 62 0 min 0,000 mm 0,0 UV-I 0 W/m 0,1 C 3,2 C 0,0 km/h (0 Bft) 0,00 %
12.10.2015 01:11 3,1 C 81 % 1015,7 hPa 0,0 l/m 0,0 km/h (0 Bft) O-NO 75 0 min 0,000 mm 0,0 UV-I 0 W/m 0,2 C 3,1 C 0,0 km/h (0 Bft) 0,00 %
12.10.2015 01:16 2,9 C 82 % 1015,7 hPa 0,0 l/m 3,2 km/h (1 Bft) O 79 0 min 0,000 mm 0,0 UV-I 0 W/m 0,1 C 2,9 C 7,9 km/h (2 Bft) 0,00 %
12.10.2015 01:21 2,8 C 81 % 1015,8 hPa 0,0 l/m 4,0 km/h (1 Bft) O-NO 78 0 min 0,000 mm 0,0 UV-I 0 W/m -0,1 C 2,8 C 7,9 km/h (2 Bft) 0,00 %
12.10.2015 01:26 2,8 C 80 % 1015,9 hPa 0,0 l/m 0,7 km/h (0 Bft) NO 48 0 min 0,000 mm 0,0 UV-I 0 W/m -0,3 C 2,8 C 4,0 km/h (1 Bft) 0,00 %
12.10.2015 01:31 2,9 C 79 % 1015,8 hPa 0,0 l/m 0,4 km/h (0 Bft) O 92 0 min 0,000 mm 0,0 UV-I 0 W/m -0,4 C 2,9 C 4,0 km/h (1 Bft) 0,00 %
12.10.2015 01:36 2,8 C 79 % 1015,8 hPa 0,0 l/m 0,4 km/h (0 Bft) O-NO 62 0 min 0,000 mm 0,0 UV-I 0 W/m -0,5 C 2,8 C 4,0 km/h (1 Bft) 0,00 %
12.10.2015 01:41 2,8 C 80 % 1015,7 hPa 0,0 l/m 0,0 km/h (0 Bft) NO 41 0 min 0,000 mm 0,0 UV-I 0 W/m -0,3 C 2,8 C 0,0 km/h (0 Bft) 0,00 %
12.10.2015 01:46 2,7 C 79 % 1015,8 hPa 0,0 l/m 2,9 km/h (1 Bft) O 80 0 min 0,000 mm 0,0 UV-I 0 W/m -0,6 C 2,7 C 4,0 km/h (1 Bft) 0,00 %
12.10.2015 01:51 2,6 C 79 % 1015,7 hPa 0,0 l/m 0,0 km/h (0 Bft) O 81 0 min 0,000 mm 0,0 UV-I 0 W/m -0,7 C 2,6 C 0,0 km/h (0 Bft) 0,00 %
12.10.2015 01:56 2,6 C 79 % 1015,8 hPa 0,0 l/m 0,0 km/h (0 Bft) O-NO 69 0 min 0,000 mm 0,0 UV-I 0 W/m -0,7 C 2,6 C 0,0 km/h (0 Bft) 0,00 %
12.10.2015 02:01 2,4 C 80 % 1015,9 hPa 0,0 l/m 0,0 km/h (0 Bft) O 84 0 min 0,000 mm 0,0 UV-I 0 W/m -0,7 C 2,4 C 0,0 km/h (0 Bft) 0,00 %
12.10.2015 02:06 2,3 C 81 % 1015,8 hPa 0,0 l/m 0,0 km/h (0 Bft) O-NO 70 0 min 0,000 mm 0,0 UV-I 0 W/m -0,6 C 2,3 C 0,0 km/h (0 Bft) 0,00 %
12.10.2015 02:11 2,1 C 81 % 1015,8 hPa 0,0 l/m 3,2 km/h (1 Bft) O 91 0 min 0,000 mm 0,0 UV-I 0 W/m -0,8 C 2,1 C 4,0 km/h (1 Bft) 0,00 %
12.10.2015 02:16 2,0 C 78 % 1015,9 hPa 0,0 l/m 0,0 km/h (0 Bft) O-NO 76 0 min 0,000 mm 0,0 UV-I 0 W/m -1,4 C 2,0 C 0,0 km/h (0 Bft) 0,00 %
12.10.2015 02:21 1,8 C 78 % 1015,7 hPa 0,0 l/m 0,0 km/h (0 Bft) O-NO 74 0 min 0,000 mm 0,0 UV-I 0 W/m -1,6 C 1,8 C 0,0 km/h (0 Bft) 0,00 %
12.10.2015 02:26 1,7 C 78 % 1015,9 hPa 0,0 l/m 0,0 km/h (0 Bft) O-NO 57 0 min 0,000 mm 0,0 UV-I 0 W/m -1,7 C 1,7 C 0,0 km/h (0 Bft) 0,00 %
12.10.2015 02:31 1,7 C 78 % 1015,7 hPa 0,0 l/m 2,2 km/h (1 Bft) O 94 0 min 0,000 mm 0,0 UV-I 0 W/m -1,7 C 1,7 C 4,0 km/h (1 Bft) 0,00 %
12.10.2015 02:36 1,7 C 78 % 1015,9 hPa 0,0 l/m 0,0 km/h (0 Bft) O 83 0 min 0,000 mm 0,0 UV-I 0 W/m -1,7 C 1,7 C 0,0 km/h (0 Bft) 0,00 %
12.10.2015 02:41 1,7 C 78 % 1015,6 hPa 0,0 l/m 0,0 km/h (0 Bft) O-NO 65 0 min 0,000 mm 0,0 UV-I 0 W/m -1,7 C 1,7 C 0,0 km/h (0 Bft) 0,00 %
12.10.2015 02:46 1,7 C 77 % 1016,0 hPa 0,0 l/m 0,0 km/h (0 Bft) NO 53 0 min 0,000 mm 0,0 UV-I 0 W/m -1,9 C 1,7 C 0,0 km/h (0 Bft) 0,00 %
12.10.2015 02:51 1,6 C 77 % 1015,9 hPa 0,0 l/m 0,0 km/h (0 Bft) O-NO 63 0 min 0,000 mm 0,0 UV-I 0 W/m -2,0 C 1,6 C 0,0 km/h (0 Bft) 0,00 %
12.10.2015 02:56 1,6 C 78 % 1016,0 hPa 0,0 l/m 0,0 km/h (0 Bft) O 87 0 min 0,000 mm 0,0 UV-I 0 W/m -1,8 C 1,6 C 0,0 km/h (0 Bft) 0,00 %
12.10.2015 03:01 1,5 C 78 % 1016,0 hPa 0,0 l/m 0,0 km/h (0 Bft) O-NO 58 0 min 0,000 mm 0,0 UV-I 0 W/m -1,9 C 1,5 C 0,0 km/h (0 Bft) 0,00 %
12.10.2015 03:06 1,3 C 78 % 1015,9 hPa 0,0 l/m 0,0 km/h (0 Bft) O-NO 58 0 min 0,000 mm 0,0 UV-I 0 W/m -2,1 C 1,3 C 0,0 km/h (0 Bft) 0,00 %
12.10.2015 03:11 1,0 C 80 % 1016,0 hPa 0,0 l/m 0,0 km/h (0 Bft) O-NO 68 0 min 0,000 mm 0,0 UV-I 0 W/m -2,1 C 1,0 C 0,0 km/h (0 Bft) 0,00 %
12.10.2015 03:16 0,9 C 80 % 1016,2 hPa 0,0 l/m 0,0 km/h (0 Bft) O-NO 65 0 min 0,000 mm 0,0 UV-I 0 W/m -2,2 C 0,9 C 0,0 km/h (0 Bft) 0,00 %
12.10.2015 03:21 0,8 C 80 % 1015,8 hPa 0,0 l/m 0,0 km/h (0 Bft) O-NO 71 0 min 0,000 mm 0,0 UV-I 0 W/m -2,2 C 0,8 C 0,0 km/h (0 Bft) 0,00 %
12.10.2015 03:26 0,8 C 81 % 1015,9 hPa 0,0 l/m 0,0 km/h (0 Bft) O-NO 59 0 min 0,000 mm 0,0 UV-I 0 W/m -2,1 C 0,8 C 0,0 km/h (0 Bft) 0,00 %
12.10.2015 03:31 0,8 C 80 % 1016,0 hPa 0,0 l/m 0,0 km/h (0 Bft) O-NO 62 0 min 0,000 mm 0,0 UV-I 0 W/m -2,2 C 0,8 C 0,0 km/h (0 Bft) 0,00 %
12.10.2015 03:36 0,7 C 80 % 1015,9 hPa 0,0 l/m 0,0 km/h (0 Bft) O-NO 67 0 min 0,000 mm 0,0 UV-I 0 W/m -2,3 C 0,7 C 0,0 km/h (0 Bft) 0,00 %
12.10.2015 03:41 0,6 C 81 % 1016,0 hPa 0,0 l/m 0,0 km/h (0 Bft) O-NO 66 0 min 0,000 mm 0,0 UV-I 0 W/m -2,3 C 0,6 C 0,0 km/h (0 Bft) 0,00 %
12.10.2015 03:46 0,3 C 82 % 1015,9 hPa 0,0 l/m 0,0 km/h (0 Bft) O-NO 66 0 min 0,000 mm 0,0 UV-I 0 W/m -2,4 C 0,3 C 0,0 km/h (0 Bft) 0,00 %
12.10.2015 03:51 -0,1 C 83 % 1015,9 hPa 0,0 l/m 0,0 km/h (0 Bft) O-NO 72 0 min 0,000 mm 0,0 UV-I 0 W/m -2,6 C -0,1 C 0,0 km/h (0 Bft) 0,00 %
12.10.2015 03:56 -0,4 C 84 % 1015,9 hPa 0,0 l/m 0,0 km/h (0 Bft) O-NO 66 0 min 0,000 mm 0,0 UV-I 0 W/m -2,8 C -0,4 C 0,0 km/h (0 Bft) 0,00 %
12.10.2015 04:01 -0,5 C 84 % 1016,0 hPa 0,0 l/m 0,0 km/h (0 Bft) O-NO 78 0 min 0,000 mm 0,0 UV-I 0 W/m -2,9 C -0,5 C 0,0 km/h (0 Bft) 0,00 %
12.10.2015 04:06 -0,7 C 85 % 1015,9 hPa 0,0 l/m 0,0 km/h (0 Bft) O-NO 69 0 min 0,000 mm 0,0 UV-I 0 W/m -2,9 C -0,7 C 0,0 km/h (0 Bft) 0,00 %
12.10.2015 04:11 -0,7 C 86 % 1015,9 hPa 0,0 l/m 0,0 km/h (0 Bft) O-NO 64 0 min 0,000 mm 0,0 UV-I 0 W/m -2,7 C -0,7 C 0,0 km/h (0 Bft) 0,00 %
12.10.2015 04:16 -0,7 C 86 % 1016,0 hPa 0,0 l/m 0,0 km/h (0 Bft) O-NO 62 0 min 0,000 mm 0,0 UV-I 0 W/m -2,7 C -0,7 C 0,0 km/h (0 Bft) 0,00 %
12.10.2015 04:21 -0,7 C 87 % 1015,9 hPa 0,0 l/m 0,0 km/h (0 Bft) O-NO 78 0 min 0,000 mm 0,0 UV-I 0 W/m -2,6 C -0,7 C 0,0 km/h (0 Bft) 0,00 %
12.10.2015 04:26 -0,7 C 87 % 1016,0 hPa 0,0 l/m 0,0 km/h (0 Bft) O-NO 66 0 min 0,000 mm 0,0 UV-I 0 W/m -2,6 C -0,7 C 0,0 km/h (0 Bft) 0,00 %
12.10.2015 04:31 -0,7 C 87 % 1016,0 hPa 0,0 l/m 0,4 km/h (0 Bft) O 96 0 min 0,000 mm 0,0 UV-I 0 W/m -2,6 C -0,7 C 4,0 km/h (1 Bft) 0,00 %
12.10.2015 04:36 -0,7 C 87 % 1015,9 hPa 0,0 l/m 0,0 km/h (0 Bft) O 88 0 min 0,000 mm 0,0 UV-I 0 W/m -2,6 C -0,7 C 0,0 km/h (0 Bft) 0,00 %
12.10.2015 04:41 -0,6 C 87 % 1015,9 hPa 0,0 l/m 0,0 km/h (0 Bft) S 173 0 min 0,000 mm 0,0 UV-I 0 W/m -2,5 C -0,6 C 0,0 km/h (0 Bft) 0,00 %
12.10.2015 04:46 -0,5 C 87 % 1016,0 hPa 0,0 l/m 0,0 km/h (0 Bft) O-NO 75 0 min 0,000 mm 0,0 UV-I 0 W/m -2,4 C -0,5 C 0,0 km/h (0 Bft) 0,00 %
12.10.2015 04:51 -0,4 C 86 % 1016,0 hPa 0,0 l/m 0,0 km/h (0 Bft) O-NO 75 0 min 0,000 mm 0,0 UV-I 0 W/m -2,4 C -0,4 C 0,0 km/h (0 Bft) 0,00 %
12.10.2015 04:56 -0,2 C 86 % 1015,9 hPa 0,0 l/m 0,0 km/h (0 Bft) O 98 0 min 0,000 mm 0,0 UV-I 0 W/m -2,3 C -0,2 C 0,0 km/h (0 Bft) 0,00 %
12.10.2015 05:01 -0,2 C 84 % 1016,2 hPa 0,0 l/m 0,0 km/h (0 Bft) O 95 0 min 0,000 mm 0,0 UV-I 0 W/m -2,6 C -0,2 C 0,0 km/h (0 Bft) 0,00 %
12.10.2015 05:06 0,0 C 83 % 1016,0 hPa 0,0 l/m 0,4 km/h (0 Bft) O 84 0 min 0,000 mm 0,0 UV-I 0 W/m -2,5 C 0,0 C 4,0 km/h (1 Bft) 0,00 %
12.10.2015 05:11 0,0 C 82 % 1016,2 hPa 0,0 l/m 0,0 km/h (0 Bft) O 98 0 min 0,000 mm 0,0 UV-I 0 W/m -2,7 C 0,0 C 0,0 km/h (0 Bft) 0,00 %
12.10.2015 05:16 0,0 C 82 % 1016,0 hPa 0,0 l/m 0,0 km/h (0 Bft) O-NO 73 0 min 0,000 mm 0,0 UV-I 0 W/m -2,7 C 0,0 C 0,0 km/h (0 Bft) 0,00 %
12.10.2015 05:21 0,0 C 82 % 1016,0 hPa 0,0 l/m 0,0 km/h (0 Bft) O-SO 105 0 min 0,000 mm 0,0 UV-I 0 W/m -2,7 C 0,0 C 0,0 km/h (0 Bft) 0,00 %
12.10.2015 05:26 0,0 C 82 % 1016,1 hPa 0,0 l/m 0,0 km/h (0 Bft) O-NO 65 0 min 0,000 mm 0,0 UV-I 0 W/m -2,7 C 0,0 C 0,0 km/h (0 Bft) 0,00 %
12.10.2015 05:31 -0,1 C 83 % 1016,3 hPa 0,0 l/m 0,0 km/h (0 Bft) O-NO 69 0 min 0,000 mm 0,0 UV-I 0 W/m -2,6 C -0,1 C 0,0 km/h (0 Bft) 0,00 %
12.10.2015 05:36 -0,2 C 83 % 1016,4 hPa 0,0 l/m 0,0 km/h (0 Bft) O-NO 64 0 min 0,000 mm 0,0 UV-I 0 W/m -2,7 C -0,2 C 0,0 km/h (0 Bft) 0,00 %
12.10.2015 05:41 -0,3 C 84 % 1016,5 hPa 0,0 l/m 0,0 km/h (0 Bft) O-NO 69 0 min 0,000 mm 0,0 UV-I 0 W/m -2,7 C -0,3 C 0,0 km/h (0 Bft) 0,00 %
12.10.2015 05:46 -0,4 C 84 % 1016,5 hPa 0,0 l/m 0,0 km/h (0 Bft) O-NO 57 0 min 0,000 mm 0,0 UV-I 0 W/m -2,8 C -0,4 C 0,0 km/h (0 Bft) 0,00 %
12.10.2015 05:51 -0,5 C 85 % 1016,5 hPa 0,0 l/m 0,0 km/h (0 Bft) NO 55 0 min 0,000 mm 0,0 UV-I 0 W/m -2,7 C -0,5 C 0,0 km/h (0 Bft) 0,00 %
12.10.2015 05:56 -0,6 C 85 % 1016,5 hPa 0,0 l/m 0,0 km/h (0 Bft) NO 56 0 min 0,000 mm 0,0 UV-I 0 W/m -2,8 C -0,6 C 0,0 km/h (0 Bft) 0,00 %
12.10.2015 06:01 -0,8 C 86 % 1016,6 hPa 0,0 l/m 0,0 km/h (0 Bft) O-NO 57 0 min 0,000 mm 0,0 UV-I 0 W/m -2,8 C -0,8 C 0,0 km/h (0 Bft) 0,00 %
12.10.2015 06:06 -1,0 C 88 % 1016,6 hPa 0,0 l/m 0,0 km/h (0 Bft) NO 43 0 min 0,000 mm 0,0 UV-I 0 W/m -2,7 C -1,0 C 0,0 km/h (0 Bft) 0,00 %
12.10.2015 06:11 -1,1 C 89 % 1016,5 hPa 0,0 l/m 0,0 km/h (0 Bft) O-NO 60 0 min 0,000 mm 0,0 UV-I 0 W/m -2,7 C -1,1 C 0,0 km/h (0 Bft) 0,00 %
12.10.2015 06:16 -1,2 C 90 % 1016,6 hPa 0,0 l/m 0,0 km/h (0 Bft) O-NO 63 0 min 0,000 mm 0,0 UV-I 0 W/m -2,6 C -1,2 C 0,0 km/h (0 Bft) 0,00 %
12.10.2015 06:21 -1,2 C 91 % 1016,7 hPa 0,0 l/m 0,0 km/h (0 Bft) NO 43 0 min 0,000 mm 0,0 UV-I 0 W/m -2,5 C -1,2 C 0,0 km/h (0 Bft) 0,00 %
12.10.2015 06:26 -1,3 C 91 % 1016,5 hPa 0,0 l/m 0,0 km/h (0 Bft) NO 53 0 min 0,000 mm 0,0 UV-I 0 W/m -2,6 C -1,3 C 0,0 km/h (0 Bft) 0,00 %
12.10.2015 06:31 -1,4 C 91 % 1016,7 hPa 0,0 l/m 0,0 km/h (0 Bft) NO 54 0 min 0,000 mm 0,0 UV-I 0 W/m -2,7 C -1,4 C 0,0 km/h (0 Bft) 0,00 %
12.10.2015 06:36 -1,5 C 91 % 1016,7 hPa 0,0 l/m 0,0 km/h (0 Bft) NO 54 0 min 0,000 mm 0,0 UV-I 0 W/m -2,8 C -1,5 C 0,0 km/h (0 Bft) 0,00 %
12.10.2015 06:41 -1,6 C 91 % 1016,7 hPa 0,0 l/m 0,0 km/h (0 Bft) O-NO 57 0 min 0,000 mm 0,0 UV-I 0 W/m -2,9 C -1,6 C 0,0 km/h (0 Bft) 0,00 %
12.10.2015 06:46 -1,7 C 92 % 1016,7 hPa 0,0 l/m 0,0 km/h (0 Bft) O-NO 57 0 min 0,000 mm 0,0 UV-I 0 W/m -2,8 C -1,7 C 0,0 km/h (0 Bft) 0,00 %
12.10.2015 06:51 -1,8 C 92 % 1016,7 hPa 0,0 l/m 0,0 km/h (0 Bft) O-NO 58 0 min 0,000 mm 0,0 UV-I 0 W/m -2,9 C -1,8 C 0,0 km/h (0 Bft) 0,00 %
12.10.2015 06:56 -1,8 C 92 % 1016,7 hPa 0,0 l/m 0,0 km/h (0 Bft) O-NO 64 0 min 0,000 mm 0,0 UV-I 0 W/m -2,9 C -1,8 C 0,0 km/h (0 Bft) 0,00 %
12.10.2015 07:01 -1,8 C 93 % 1016,6 hPa 0,0 l/m 0,0 km/h (0 Bft) NO 40 0 min 0,000 mm 0,0 UV-I 0 W/m -2,8 C -1,8 C 0,0 km/h (0 Bft) 0,00 %
12.10.2015 07:06 -1,5 C 91 % 1016,6 hPa 0,0 l/m 0,0 km/h (0 Bft) O-NO 59 0 min 0,000 mm 0,0 UV-I 0 W/m -2,8 C -1,5 C 0,0 km/h (0 Bft) 0,00 %
12.10.2015 07:11 -1,0 C 92 % 1016,6 hPa 0,0 l/m 0,0 km/h (0 Bft) O-NO 70 0 min 0,000 mm 0,0 UV-I 0 W/m -2,1 C -1,0 C 0,0 km/h (0 Bft) 0,00 %
12.10.2015 07:16 -1,0 C 92 % 1016,5 hPa 0,0 l/m 0,0 km/h (0 Bft) O-NO 68 0 min 0,000 mm 0,0 UV-I 0 W/m -2,1 C -1,0 C 0,0 km/h (0 Bft) 0,00 %
12.10.2015 07:21 -1,2 C 91 % 1016,6 hPa 0,0 l/m 0,0 km/h (0 Bft) O-NO 77 0 min 0,000 mm 0,0 UV-I 0 W/m -2,5 C -1,2 C 0,0 km/h (0 Bft) 0,00 %
12.10.2015 07:26 -1,4 C 91 % 1016,7 hPa 0,0 l/m 0,0 km/h (0 Bft) O-NO 62 0 min 0,000 mm 0,0 UV-I 5 W/m -2,7 C -1,4 C 0,0 km/h (0 Bft) 0,00 %
12.10.2015 07:31 -1,5 C 91 % 1016,7 hPa 0,0 l/m 0,0 km/h (0 Bft) O-NO 67 0 min 0,000 mm 0,0 UV-I 9 W/m -2,8 C -1,5 C 0,0 km/h (0 Bft) 0,00 %
12.10.2015 07:36 -1,6 C 91 % 1016,8 hPa 0,0 l/m 0,0 km/h (0 Bft) O-NO 66 5 min 0,000 mm 0,0 UV-I 68 W/m -2,9 C -1,6 C 0,0 km/h (0 Bft) 0,00 %
12.10.2015 07:41 -1,6 C 91 % 1016,6 hPa 0,0 l/m 0,0 km/h (0 Bft) O-NO 58 5 min 0,000 mm 0,0 UV-I 83 W/m -2,9 C -1,6 C 0,0 km/h (0 Bft) 0,00 %
12.10.2015 07:46 -1,7 C 91 % 1016,8 hPa 0,0 l/m 0,0 km/h (0 Bft) O-NO 71 5 min 0,000 mm 0,0 UV-I 88 W/m -3,0 C -1,7 C 0,0 km/h (0 Bft) 0,00 %
12.10.2015 07:51 -1,6 C 91 % 1016,9 hPa 0,0 l/m 0,0 km/h (0 Bft) O 97 5 min 0,000 mm 0,0 UV-I 94 W/m -2,9 C -1,6 C 0,0 km/h (0 Bft) 0,00 %
12.10.2015 07:56 -1,5 C 91 % 1017,0 hPa 0,0 l/m 0,0 km/h (0 Bft) O-NO 66 5 min 0,000 mm 0,0 UV-I 90 W/m -2,8 C -1,5 C 0,0 km/h (0 Bft) 0,00 %
12.10.2015 08:01 -1,2 C 91 % 1016,9 hPa 0,0 l/m 0,0 km/h (0 Bft) O-NO 68 5 min 0,000 mm 0,0 UV-I 90 W/m -2,5 C -1,2 C 0,0 km/h (0 Bft) 0,00 %
12.10.2015 08:06 -0,8 C 90 % 1016,8 hPa 0,0 l/m 0,0 km/h (0 Bft) O-NO 73 5 min 0,000 mm 0,0 UV-I 95 W/m -2,2 C -0,8 C 0,0 km/h (0 Bft) 0,00 %
12.10.2015 08:11 -0,4 C 88 % 1016,9 hPa 0,0 l/m 0,0 km/h (0 Bft) O-NO 62 5 min 0,000 mm 0,0 UV-I 95 W/m -2,1 C -0,4 C 0,0 km/h (0 Bft) 0,00 %
12.10.2015 08:16 0,0 C 86 % 1017,1 hPa 0,0 l/m 0,0 km/h (0 Bft) O-NO 62 5 min 0,000 mm 0,0 UV-I 100 W/m -2,1 C 0,0 C 0,0 km/h (0 Bft) 0,00 %
12.10.2015 08:21 0,3 C 85 % 1016,7 hPa 0,0 l/m 0,0 km/h (0 Bft) O-NO 75 5 min 0,000 mm 0,0 UV-I 105 W/m -1,9 C 0,3 C 0,0 km/h (0 Bft) 0,00 %
12.10.2015 08:26 0,6 C 83 % 1016,9 hPa 0,0 l/m 0,0 km/h (0 Bft) O-SO 102 5 min 0,000 mm 0,0 UV-I 110 W/m -1,9 C 0,6 C 0,0 km/h (0 Bft) 0,00 %
12.10.2015 08:31 0,8 C 81 % 1016,9 hPa 0,0 l/m 3,2 km/h (1 Bft) O 100 5 min 0,000 mm 0,0 UV-I 115 W/m -2,1 C 0,8 C 4,0 km/h (1 Bft) 0,00 %
12.10.2015 08:36 0,9 C 79 % 1016,9 hPa 0,0 l/m 0,0 km/h (0 Bft) O-NO 60 5 min 0,000 mm 1,0 UV-I 115 W/m -2,3 C 0,9 C 0,0 km/h (0 Bft) 0,00 %
12.10.2015 08:41 1,0 C 78 % 1017,1 hPa 0,0 l/m 0,0 km/h (0 Bft) O-NO 72 5 min 0,000 mm 1,0 UV-I 120 W/m -2,4 C 1,0 C 0,0 km/h (0 Bft) 0,00 %
12.10.2015 08:46 0,9 C 80 % 1016,8 hPa 0,0 l/m 0,0 km/h (0 Bft) O-NO 75 0 min 0,000 mm 1,0 UV-I 125 W/m -2,2 C 0,9 C 0,0 km/h (0 Bft) 0,00 %
12.10.2015 08:51 0,9 C 79 % 1016,9 hPa 0,0 l/m 0,0 km/h (0 Bft) O-NO 74 0 min 0,000 mm 1,0 UV-I 125 W/m -2,3 C 0,9 C 0,0 km/h (0 Bft) 0,00 %
12.10.2015 08:56 1,2 C 78 % 1017,0 hPa 0,0 l/m 4,3 km/h (1 Bft) O 93 0 min 0,000 mm 1,0 UV-I 130 W/m -2,2 C 1,2 C 7,9 km/h (2 Bft) 0,00 %
12.10.2015 09:01 1,6 C 77 % 1017,0 hPa 0,0 l/m 5,8 km/h (2 Bft) O-SO 116 0 min 0,000 mm 1,0 UV-I 130 W/m -2,0 C 1,6 C 7,9 km/h (2 Bft) 0,00 %
12.10.2015 09:06 1,9 C 80 % 1017,1 hPa 0,0 l/m 3,2 km/h (1 Bft) O 89 0 min 0,000 mm 1,0 UV-I 135 W/m -1,2 C 1,9 C 4,0 km/h (1 Bft) 0,00 %
12.10.2015 09:11 2,1 C 79 % 1017,1 hPa 0,0 l/m 0,0 km/h (0 Bft) O 86 0 min 0,000 mm 1,0 UV-I 140 W/m -1,2 C 2,1 C 0,0 km/h (0 Bft) 0,00 %
12.10.2015 09:16 2,4 C 78 % 1017,0 hPa 0,0 l/m 0,0 km/h (0 Bft) O 90 0 min 0,000 mm 1,0 UV-I 140 W/m -1,0 C 2,4 C 0,0 km/h (0 Bft) 0,00 %
12.10.2015 09:21 2,6 C 77 % 1017,0 hPa 0,0 l/m 2,2 km/h (1 Bft) O-SO 104 0 min 0,000 mm 1,0 UV-I 140 W/m -1,0 C 2,6 C 4,0 km/h (1 Bft) 0,00 %
12.10.2015 09:26 2,8 C 75 % 1017,1 hPa 0,0 l/m 0,0 km/h (0 Bft) NO 52 0 min 0,000 mm 1,0 UV-I 145 W/m -1,2 C 2,8 C 0,0 km/h (0 Bft) 0,00 %
12.10.2015 09:31 3,0 C 75 % 1017,1 hPa 0,0 l/m 3,2 km/h (1 Bft) O-SO 110 0 min 0,000 mm 1,0 UV-I 145 W/m -1,0 C 3,0 C 4,0 km/h (1 Bft) 0,00 %
12.10.2015 09:36 3,1 C 75 % 1017,1 hPa 0,0 l/m 1,4 km/h (1 Bft) O 82 0 min 0,000 mm 1,0 UV-I 150 W/m -0,9 C 3,1 C 4,0 km/h (1 Bft) 0,00 %
12.10.2015 09:41 3,1 C 74 % 1017,0 hPa 0,0 l/m 4,0 km/h (1 Bft) O-SO 103 0 min 0,000 mm 1,0 UV-I 150 W/m -1,1 C 3,1 C 7,9 km/h (2 Bft) 0,00 %
12.10.2015 09:46 3,4 C 75 % 1017,0 hPa 0,0 l/m 0,0 km/h (0 Bft) O 91 0 min 0,000 mm 1,0 UV-I 155 W/m -0,6 C 3,4 C 0,0 km/h (0 Bft) 0,00 %
12.10.2015 09:51 3,4 C 75 % 1017,0 hPa 0,0 l/m 4,0 km/h (1 Bft) O-SO 114 0 min 0,000 mm 1,0 UV-I 155 W/m -0,6 C 3,4 C 7,9 km/h (2 Bft) 0,00 %
12.10.2015 09:56 3,6 C 75 % 1017,1 hPa 0,0 l/m 2,9 km/h (1 Bft) O-SO 110 0 min 0,000 mm 1,0 UV-I 160 W/m -0,4 C 3,6 C 7,9 km/h (2 Bft) 0,00 %
12.10.2015 10:01 3,8 C 74 % 1017,1 hPa 0,0 l/m 0,7 km/h (0 Bft) NO 39 0 min 0,000 mm 1,0 UV-I 165 W/m -0,4 C 3,8 C 4,0 km/h (1 Bft) 0,00 %
12.10.2015 10:06 3,9 C 75 % 1017,1 hPa 0,0 l/m 2,9 km/h (1 Bft) O-SO 113 0 min 0,000 mm 1,0 UV-I 170 W/m -0,1 C 3,9 C 4,0 km/h (1 Bft) 0,00 %
12.10.2015 10:11 4,1 C 75 % 1017,1 hPa 0,0 l/m 0,4 km/h (0 Bft) O-SO 120 0 min 0,000 mm 1,0 UV-I 175 W/m 0,1 C 4,1 C 4,0 km/h (1 Bft) 0,00 %
12.10.2015 10:16 4,2 C 74 % 1017,0 hPa 0,0 l/m 1,8 km/h (1 Bft) O-NO 74 0 min 0,000 mm 1,0 UV-I 190 W/m -0,0 C 4,2 C 7,9 km/h (2 Bft) 0,00 %
12.10.2015 10:21 4,2 C 72 % 1017,0 hPa 0,0 l/m 7,2 km/h (2 Bft) O 94 0 min 0,000 mm 1,0 UV-I 200 W/m -0,4 C 3,5 C 11,9 km/h (2 Bft) 0,00 %
12.10.2015 10:26 4,3 C 72 % 1017,1 hPa 0,0 l/m 4,7 km/h (1 Bft) O-NO 67 0 min 0,000 mm 1,0 UV-I 205 W/m -0,3 C 4,3 C 7,9 km/h (2 Bft) 0,00 %
12.10.2015 10:31 4,5 C 71 % 1017,0 hPa 0,0 l/m 0,0 km/h (0 Bft) O-NO 60 0 min 0,000 mm 1,0 UV-I 210 W/m -0,3 C 4,5 C 0,0 km/h (0 Bft) 0,00 %
12.10.2015 10:36 4,6 C 72 % 1017,1 hPa 0,0 l/m 2,2 km/h (1 Bft) O 97 0 min 0,000 mm 1,0 UV-I 215 W/m -0,0 C 4,6 C 4,0 km/h (1 Bft) 0,00 %
12.10.2015 10:41 4,8 C 70 % 1017,0 hPa 0,0 l/m 8,3 km/h (2 Bft) O 98 0 min 0,000 mm 1,0 UV-I 220 W/m -0,2 C 3,1 C 11,9 km/h (2 Bft) 0,00 %
12.10.2015 10:46 4,9 C 72 % 1017,1 hPa 0,0 l/m 7,2 km/h (2 Bft) O 82 0 min 0,000 mm 1,0 UV-I 225 W/m 0,3 C 4,2 C 7,9 km/h (2 Bft) 0,00 %
12.10.2015 10:51 4,8 C 72 % 1017,1 hPa 0,0 l/m 0,0 km/h (0 Bft) N 353 0 min 0,000 mm 1,0 UV-I 230 W/m 0,2 C 4,8 C 0,0 km/h (0 Bft) 0,00 %
12.10.2015 10:56 4,9 C 70 % 1016,7 hPa 0,0 l/m 5,8 km/h (2 Bft) O-SO 102 0 min 0,000 mm 1,0 UV-I 240 W/m -0,1 C 4,9 C 7,9 km/h (2 Bft) 0,00 %
12.10.2015 11:01 5,1 C 71 % 1016,7 hPa 0,0 l/m 0,4 km/h (0 Bft) O-NO 76 0 min 0,000 mm 1,0 UV-I 250 W/m 0,3 C 5,1 C 4,0 km/h (1 Bft) 0,00 %
12.10.2015 11:06 5,3 C 69 % 1017,0 hPa 0,0 l/m 10,4 km/h (2 Bft) O 85 0 min 0,000 mm 1,0 UV-I 260 W/m 0,1 C 2,1 C 15,8 km/h (3 Bft) 0,00 %
12.10.2015 11:11 5,6 C 68 % 1016,9 hPa 0,0 l/m 4,3 km/h (1 Bft) O-SO 103 5 min 0,000 mm 1,0 UV-I 290 W/m 0,2 C 5,6 C 7,9 km/h (2 Bft) 0,00 %
12.10.2015 11:16 5,8 C 65 % 1016,9 hPa 0,0 l/m 9,4 km/h (2 Bft) O-NO 76 5 min 0,000 mm 1,0 UV-I 300 W/m -0,3 C 3,4 C 15,8 km/h (3 Bft) 0,00 %
12.10.2015 11:21 5,9 C 67 % 1016,7 hPa 0,0 l/m 0,4 km/h (0 Bft) O-NO 64 0 min 0,000 mm 1,0 UV-I 141 W/m 0,3 C 5,9 C 4,0 km/h (1 Bft) 0,00 %
12.10.2015 11:26 6,0 C 67 % 1016,8 hPa 0,0 l/m 2,2 km/h (1 Bft) NO 36 0 min 0,000 mm 1,0 UV-I 256 W/m 0,3 C 6,0 C 7,9 km/h (2 Bft) 0,00 %
12.10.2015 11:31 6,1 C 67 % 1016,9 hPa 0,0 l/m 6,8 km/h (2 Bft) O 92 0 min 0,000 mm 1,0 UV-I 270 W/m 0,4 C 5,8 C 7,9 km/h (2 Bft) 0,00 %
12.10.2015 11:36 6,1 C 65 % 1016,9 hPa 0,0 l/m 0,7 km/h (0 Bft) N-NO 26 0 min 0,000 mm 1,0 UV-I 283 W/m 0,0 C 6,1 C 4,0 km/h (1 Bft) 0,00 %
12.10.2015 11:41 6,2 C 64 % 1016,8 hPa 0,0 l/m 4,7 km/h (1 Bft) O 79 0 min 0,000 mm 2,0 UV-I 297 W/m -0,1 C 6,2 C 7,9 km/h (2 Bft) 0,00 %
12.10.2015 11:46 6,1 C 62 % 1016,9 hPa 0,0 l/m 2,2 km/h (1 Bft) O-SO 116 5 min 0,000 mm 2,0 UV-I 310 W/m -0,6 C 6,1 C 4,0 km/h (1 Bft) 0,00 %
12.10.2015 11:51 6,3 C 63 % 1016,6 hPa 0,0 l/m 2,2 km/h (1 Bft) N 357 5 min 0,000 mm 2,0 UV-I 327 W/m -0,2 C 6,3 C 4,0 km/h (1 Bft) 0,00 %
12.10.2015 11:56 6,5 C 63 % 1016,7 hPa 0,0 l/m 4,7 km/h (1 Bft) NO 48 5 min 0,000 mm 2,0 UV-I 341 W/m -0,0 C 6,5 C 7,9 km/h (2 Bft) 0,00 %
12.10.2015 12:01 6,5 C 64 % 1016,6 hPa 0,0 l/m 0,7 km/h (0 Bft) NO 45 5 min 0,000 mm 2,0 UV-I 355 W/m 0,2 C 6,5 C 4,0 km/h (1 Bft) 0,00 %
12.10.2015 12:06 6,5 C 65 % 1016,4 hPa 0,0 l/m 7,2 km/h (2 Bft) O 98 5 min 0,000 mm 2,0 UV-I 374 W/m 0,4 C 5,8 C 11,9 km/h (2 Bft) 0,00 %
12.10.2015 12:11 6,5 C 64 % 1016,5 hPa 0,0 l/m 0,7 km/h (0 Bft) NO 41 5 min 0,000 mm 2,0 UV-I 390 W/m 0,2 C 6,5 C 4,0 km/h (1 Bft) 0,00 %
12.10.2015 12:16 6,6 C 64 % 1016,4 hPa 0,0 l/m 6,8 km/h (2 Bft) O 83 5 min 0,000 mm 2,0 UV-I 407 W/m 0,3 C 6,3 C 7,9 km/h (2 Bft) 0,00 %
12.10.2015 12:21 6,6 C 65 % 1016,3 hPa 0,0 l/m 0,0 km/h (0 Bft) N-NO 13 5 min 0,000 mm 2,0 UV-I 425 W/m 0,5 C 6,6 C 0,0 km/h (0 Bft) 0,00 %
12.10.2015 12:26 6,7 C 64 % 1016,5 hPa 0,0 l/m 5,4 km/h (1 Bft) O-NO 61 5 min 0,000 mm 2,0 UV-I 426 W/m 0,4 C 6,7 C 7,9 km/h (2 Bft) 0,00 %
12.10.2015 12:31 6,7 C 65 % 1016,1 hPa 0,0 l/m 6,8 km/h (2 Bft) O 85 5 min 0,000 mm 2,0 UV-I 460 W/m 0,6 C 6,4 C 7,9 km/h (2 Bft) 0,00 %
12.10.2015 12:36 6,9 C 64 % 1016,3 hPa 0,0 l/m 7,9 km/h (2 Bft) O 87 5 min 0,000 mm 2,0 UV-I 435 W/m 0,6 C 5,7 C 7,9 km/h (2 Bft) 0,00 %
12.10.2015 12:41 7,0 C 64 % 1016,3 hPa 0,0 l/m 7,9 km/h (2 Bft) O 89 0 min 0,000 mm 2,0 UV-I 128 W/m 0,7 C 5,8 C 11,9 km/h (2 Bft) 0,00 %
12.10.2015 12:46 7,1 C 64 % 1016,3 hPa 0,0 l/m 4,0 km/h (1 Bft) O-NO 69 0 min 0,000 mm 2,0 UV-I 295 W/m 0,8 C 7,1 C 7,9 km/h (2 Bft) 0,00 %
12.10.2015 12:51 7,2 C 63 % 1016,1 hPa 0,0 l/m 2,9 km/h (1 Bft) O-NO 69 5 min 0,000 mm 2,0 UV-I 478 W/m 0,6 C 7,2 C 4,0 km/h (1 Bft) 0,00 %
12.10.2015 12:56 7,2 C 64 % 1016,0 hPa 0,0 l/m 9,4 km/h (2 Bft) O 97 0 min 0,000 mm 2,0 UV-I 130 W/m 0,9 C 4,9 C 11,9 km/h (2 Bft) 0,00 %
12.10.2015 13:01 7,3 C 65 % 1015,9 hPa 0,0 l/m 9,4 km/h (2 Bft) O 90 0 min 0,000 mm 2,0 UV-I 131 W/m 1,2 C 5,0 C 11,9 km/h (2 Bft) 0,00 %
12.10.2015 13:06 7,4 C 64 % 1015,9 hPa 0,0 l/m 9,4 km/h (2 Bft) O-NO 73 0 min 0,000 mm 2,0 UV-I 159 W/m 1,0 C 5,1 C 11,9 km/h (2 Bft) 0,00 %
12.10.2015 13:11 7,4 C 63 % 1015,9 hPa 0,0 l/m 2,2 km/h (1 Bft) O-SO 116 0 min 0,000 mm 2,0 UV-I 131 W/m 0,8 C 7,4 C 7,9 km/h (2 Bft) 0,00 %
12.10.2015 13:16 7,4 C 63 % 1015,9 hPa 0,0 l/m 6,8 km/h (2 Bft) O-SO 105 5 min 0,000 mm 1,0 UV-I 567 W/m 0,8 C 7,1 C 7,9 km/h (2 Bft) 0,00 %
12.10.2015 13:21 7,5 C 64 % 1015,7 hPa 0,0 l/m 8,3 km/h (2 Bft) O-NO 69 5 min 0,000 mm 1,0 UV-I 585 W/m 1,1 C 6,0 C 11,9 km/h (2 Bft) 0,00 %
12.10.2015 13:26 7,7 C 63 % 1015,5 hPa 0,0 l/m 0,0 km/h (0 Bft) NO 44 5 min 0,000 mm 1,0 UV-I 589 W/m 1,1 C 7,7 C 0,0 km/h (0 Bft) 0,00 %
12.10.2015 13:31 7,6 C 63 % 1015,5 hPa 0,0 l/m 4,0 km/h (1 Bft) O 86 5 min 0,000 mm 1,0 UV-I 590 W/m 1,0 C 7,6 C 7,9 km/h (2 Bft) 0,00 %
12.10.2015 13:36 7,7 C 61 % 1015,5 hPa 0,0 l/m 7,9 km/h (2 Bft) O 86 5 min 0,000 mm 1,0 UV-I 593 W/m 0,7 C 6,5 C 11,9 km/h (2 Bft) 0,00 %
12.10.2015 13:41 7,9 C 62 % 1015,3 hPa 0,0 l/m 0,0 km/h (0 Bft) O-NO 70 5 min 0,000 mm 1,0 UV-I 599 W/m 1,1 C 7,9 C 0,0 km/h (0 Bft) 0,00 %
12.10.2015 13:46 8,0 C 61 % 1015,4 hPa 0,0 l/m 8,3 km/h (2 Bft) O-NO 71 5 min 0,000 mm 1,0 UV-I 601 W/m 0,9 C 6,5 C 11,9 km/h (2 Bft) 0,00 %
12.10.2015 13:51 8,1 C 62 % 1015,4 hPa 0,0 l/m 0,7 km/h (0 Bft) O-NO 68 5 min 0,000 mm 1,0 UV-I 609 W/m 1,3 C 8,1 C 4,0 km/h (1 Bft) 0,00 %
12.10.2015 13:56 8,2 C 61 % 1015,3 hPa 0,0 l/m 0,4 km/h (0 Bft) NO 51 5 min 0,000 mm 1,0 UV-I 615 W/m 1,1 C 8,2 C 4,0 km/h (1 Bft) 0,00 %
12.10.2015 14:01 8,3 C 61 % 1015,1 hPa 0,0 l/m 9,0 km/h (2 Bft) O 87 5 min 0,000 mm 1,0 UV-I 620 W/m 1,2 C 6,4 C 15,8 km/h (3 Bft) 0,00 %
12.10.2015 14:06 8,3 C 62 % 1015,4 hPa 0,0 l/m 0,7 km/h (0 Bft) O-NO 58 5 min 0,000 mm 1,0 UV-I 620 W/m 1,5 C 8,3 C 4,0 km/h (1 Bft) 0,00 %
12.10.2015 14:11 8,3 C 62 % 1015,3 hPa 0,0 l/m 2,9 km/h (1 Bft) O-NO 78 5 min 0,000 mm 1,0 UV-I 631 W/m 1,5 C 8,3 C 4,0 km/h (1 Bft) 0,00 %
12.10.2015 14:16 8,5 C 62 % 1015,4 hPa 0,0 l/m 0,4 km/h (0 Bft) O 89 5 min 0,000 mm 1,0 UV-I 627 W/m 1,6 C 8,5 C 4,0 km/h (1 Bft) 0,00 %
12.10.2015 14:21 8,8 C 61 % 1015,3 hPa 0,0 l/m 4,3 km/h (1 Bft) O 100 5 min 0,000 mm 1,0 UV-I 635 W/m 1,7 C 8,8 C 7,9 km/h (2 Bft) 0,00 %
12.10.2015 14:26 8,9 C 62 % 1015,2 hPa 0,0 l/m 4,7 km/h (1 Bft) O-NO 78 5 min 0,000 mm 1,0 UV-I 638 W/m 2,0 C 8,9 C 7,9 km/h (2 Bft) 0,00 %
12.10.2015 14:31 9,0 C 61 % 1015,0 hPa 0,0 l/m 9,7 km/h (2 Bft) O 100 5 min 0,000 mm 1,0 UV-I 634 W/m 1,9 C 6,7 C 11,9 km/h (2 Bft) 0,00 %
12.10.2015 14:36 9,0 C 61 % 1015,0 hPa 0,0 l/m 0,4 km/h (0 Bft) O-NO 72 5 min 0,000 mm 1,0 UV-I 637 W/m 1,9 C 9,0 C 4,0 km/h (1 Bft) 0,00 %
12.10.2015 14:41 9,0 C 61 % 1014,9 hPa 0,0 l/m 0,0 km/h (0 Bft) O 100 5 min 0,000 mm 1,0 UV-I 642 W/m 1,9 C 9,0 C 0,0 km/h (0 Bft) 0,00 %
12.10.2015 14:46 9,1 C 61 % 1015,0 hPa 0,0 l/m 0,0 km/h (0 Bft) NO 40 5 min 0,000 mm 1,0 UV-I 633 W/m 2,0 C 9,1 C 0,0 km/h (0 Bft) 0,00 %
12.10.2015 14:51 9,2 C 62 % 1015,1 hPa 0,0 l/m 8,3 km/h (2 Bft) O 79 5 min 0,000 mm 1,0 UV-I 624 W/m 2,3 C 7,8 C 11,9 km/h (2 Bft) 0,00 %
12.10.2015 14:56 9,1 C 62 % 1015,2 hPa 0,0 l/m 0,4 km/h (0 Bft) O-SO 112 5 min 0,000 mm 1,0 UV-I 626 W/m 2,2 C 9,1 C 4,0 km/h (1 Bft) 0,00 %
12.10.2015 15:01 9,2 C 62 % 1014,9 hPa 0,0 l/m 7,2 km/h (2 Bft) O 91 5 min 0,000 mm 1,0 UV-I 633 W/m 2,3 C 8,6 C 11,9 km/h (2 Bft) 0,00 %
12.10.2015 15:06 9,3 C 62 % 1015,2 hPa 0,0 l/m 3,2 km/h (1 Bft) O-NO 64 5 min 0,000 mm 1,0 UV-I 635 W/m 2,4 C 9,3 C 7,9 km/h (2 Bft) 0,00 %
12.10.2015 15:11 9,3 C 61 % 1015,0 hPa 0,0 l/m 6,5 km/h (2 Bft) O-SO 109 5 min 0,000 mm 1,0 UV-I 629 W/m 2,2 C 9,3 C 11,9 km/h (2 Bft) 0,00 %
12.10.2015 15:16 9,3 C 62 % 1015,0 hPa 0,0 l/m 4,3 km/h (1 Bft) O 81 5 min 0,000 mm 1,0 UV-I 633 W/m 2,4 C 9,3 C 7,9 km/h (2 Bft) 0,00 %
12.10.2015 15:21 9,4 C 61 % 1014,8 hPa 0,0 l/m 3,2 km/h (1 Bft) O 80 5 min 0,000 mm 1,0 UV-I 630 W/m 2,3 C 9,4 C 4,0 km/h (1 Bft) 0,00 %
12.10.2015 15:26 9,5 C 61 % 1014,7 hPa 0,0 l/m 4,0 km/h (1 Bft) O 82 5 min 0,000 mm 1,0 UV-I 630 W/m 2,4 C 9,5 C 7,9 km/h (2 Bft) 0,00 %
12.10.2015 15:31 9,6 C 61 % 1014,6 hPa 0,0 l/m 0,7 km/h (0 Bft) O 79 5 min 0,000 mm 1,0 UV-I 631 W/m 2,5 C 9,6 C 4,0 km/h (1 Bft) 0,00 %
12.10.2015 15:36 9,7 C 62 % 1014,8 hPa 0,0 l/m 1,8 km/h (1 Bft) O-NO 77 5 min 0,000 mm 1,0 UV-I 621 W/m 2,8 C 9,7 C 4,0 km/h (1 Bft) 0,00 %
12.10.2015 15:41 9,8 C 61 % 1014,7 hPa 0,0 l/m 4,3 km/h (1 Bft) O-NO 76 5 min 0,000 mm 1,0 UV-I 609 W/m 2,6 C 9,8 C 7,9 km/h (2 Bft) 0,00 %
12.10.2015 15:46 9,8 C 61 % 1014,7 hPa 0,0 l/m 10,4 km/h (2 Bft) O 86 5 min 0,000 mm 1,0 UV-I 601 W/m 2,6 C 7,1 C 11,9 km/h (2 Bft) 0,00 %
12.10.2015 15:51 9,6 C 62 % 1014,6 hPa 0,0 l/m 7,9 km/h (2 Bft) O-NO 75 5 min 0,000 mm 1,0 UV-I 590 W/m 2,7 C 8,5 C 11,9 km/h (2 Bft) 0,00 %
12.10.2015 15:56 9,6 C 62 % 1014,5 hPa 0,0 l/m 9,7 km/h (2 Bft) O-SO 119 5 min 0,000 mm 1,0 UV-I 593 W/m 2,7 C 7,3 C 11,9 km/h (2 Bft) 0,00 %
12.10.2015 16:01 9,8 C 60 % 1014,5 hPa 0,0 l/m 4,3 km/h (1 Bft) O-SO 113 5 min 0,000 mm 1,0 UV-I 584 W/m 2,4 C 9,8 C 7,9 km/h (2 Bft) 0,00 %
12.10.2015 16:06 9,9 C 62 % 1014,4 hPa 0,0 l/m 9,0 km/h (2 Bft) O-NO 63 5 min 0,000 mm 1,0 UV-I 571 W/m 3,0 C 8,1 C 15,8 km/h (3 Bft) 0,00 %
12.10.2015 16:12 9,8 C 62 % 1014,4 hPa 0,0 l/m 5,4 km/h (1 Bft) O-SO 105 6 min 0,000 mm 1,0 UV-I 565 W/m 2,9 C 9,8 C 7,9 km/h (2 Bft) 0,00 %
12.10.2015 16:17 9,7 C 62 % 1014,4 hPa 0,0 l/m 7,9 km/h (2 Bft) O 96 5 min 0,000 mm 1,0 UV-I 549 W/m 2,8 C 8,6 C 7,9 km/h (2 Bft) 0,00 %
12.10.2015 16:22 9,7 C 62 % 1014,6 hPa 0,0 l/m 0,7 km/h (0 Bft) O 86 5 min 0,000 mm 1,0 UV-I 551 W/m 2,8 C 9,7 C 4,0 km/h (1 Bft) 0,00 %
12.10.2015 16:27 9,8 C 62 % 1014,4 hPa 0,0 l/m 11,5 km/h (2 Bft) O 83 5 min 0,000 mm 1,0 UV-I 530 W/m 2,9 C 6,5 C 15,8 km/h (3 Bft) 0,00 %
12.10.2015 16:32 9,8 C 63 % 1014,5 hPa 0,0 l/m 7,9 km/h (2 Bft) O 84 5 min 0,000 mm 1,0 UV-I 509 W/m 3,1 C 8,7 C 11,9 km/h (2 Bft) 0,00 %
12.10.2015 16:37 9,7 C 63 % 1014,5 hPa 0,0 l/m 1,8 km/h (1 Bft) O 82 5 min 0,000 mm 1,0 UV-I 488 W/m 3,0 C 9,7 C 4,0 km/h (1 Bft) 0,00 %
12.10.2015 16:42 9,7 C 63 % 1014,5 hPa 0,0 l/m 5,4 km/h (1 Bft) O 97 5 min 0,000 mm 1,0 UV-I 464 W/m 3,0 C 9,7 C 7,9 km/h (2 Bft) 0,00 %
12.10.2015 16:47 9,7 C 63 % 1014,4 hPa 0,0 l/m 0,0 km/h (0 Bft) O-NO 75 5 min 0,000 mm 1,0 UV-I 436 W/m 3,0 C 9,7 C 0,0 km/h (0 Bft) 0,00 %
12.10.2015 16:52 9,7 C 63 % 1014,3 hPa 0,0 l/m 6,5 km/h (2 Bft) O 84 5 min 0,000 mm 1,0 UV-I 390 W/m 3,0 C 9,7 C 7,9 km/h (2 Bft) 0,00 %
12.10.2015 16:57 9,7 C 63 % 1014,2 hPa 0,0 l/m 11,5 km/h (2 Bft) O-SO 112 5 min 0,000 mm 1,0 UV-I 406 W/m 3,0 C 6,4 C 15,8 km/h (3 Bft) 0,00 %
12.10.2015 17:02 9,6 C 64 % 1014,3 hPa 0,0 l/m 9,0 km/h (2 Bft) O 101 5 min 0,000 mm 1,0 UV-I 374 W/m 3,1 C 7,8 C 11,9 km/h (2 Bft) 0,00 %
12.10.2015 17:07 9,5 C 65 % 1014,2 hPa 0,0 l/m 4,0 km/h (1 Bft) O 99 5 min 0,000 mm 0,0 UV-I 366 W/m 3,3 C 9,5 C 7,9 km/h (2 Bft) 0,00 %
12.10.2015 17:12 9,3 C 64 % 1014,0 hPa 0,0 l/m 2,2 km/h (1 Bft) O-NO 74 5 min 0,000 mm 0,0 UV-I 361 W/m 2,8 C 9,3 C 4,0 km/h (1 Bft) 0,00 %
12.10.2015 17:17 9,3 C 63 % 1014,0 hPa 0,0 l/m 0,0 km/h (0 Bft) O-NO 58 5 min 0,000 mm 0,0 UV-I 338 W/m 2,6 C 9,3 C 0,0 km/h (0 Bft) 0,00 %
12.10.2015 17:22 9,4 C 65 % 1014,0 hPa 0,0 l/m 11,9 km/h (2 Bft) O 94 5 min 0,000 mm 0,0 UV-I 330 W/m 3,2 C 5,9 C 15,8 km/h (3 Bft) 0,00 %
12.10.2015 17:27 9,3 C 65 % 1014,1 hPa 0,0 l/m 4,3 km/h (1 Bft) SO 128 5 min 0,000 mm 0,0 UV-I 252 W/m 3,1 C 9,3 C 7,9 km/h (2 Bft) 0,00 %
12.10.2015 17:32 9,2 C 66 % 1014,2 hPa 0,0 l/m 0,0 km/h (0 Bft) O-NO 72 5 min 0,000 mm 0,0 UV-I 232 W/m 3,2 C 9,2 C 0,0 km/h (0 Bft) 0,00 %
12.10.2015 17:37 9,1 C 67 % 1014,2 hPa 0,0 l/m 4,3 km/h (1 Bft) O 85 5 min 0,000 mm 0,0 UV-I 236 W/m 3,3 C 9,1 C 7,9 km/h (2 Bft) 0,00 %
12.10.2015 17:42 9,0 C 70 % 1014,2 hPa 0,0 l/m 6,5 km/h (2 Bft) SO 134 5 min 0,000 mm 0,0 UV-I 221 W/m 3,8 C 9,0 C 7,9 km/h (2 Bft) 0,00 %
12.10.2015 17:47 8,8 C 69 % 1014,5 hPa 0,0 l/m 2,2 km/h (1 Bft) O-NO 76 5 min 0,000 mm 0,0 UV-I 112 W/m 3,4 C 8,8 C 4,0 km/h (1 Bft) 0,00 %
12.10.2015 17:52 8,7 C 69 % 1014,3 hPa 0,0 l/m 0,7 km/h (0 Bft) O-SO 113 5 min 0,000 mm 0,0 UV-I 145 W/m 3,3 C 8,7 C 4,0 km/h (1 Bft) 0,00 %
12.10.2015 17:57 8,5 C 70 % 1014,9 hPa 0,0 l/m 0,7 km/h (0 Bft) O 86 5 min 0,000 mm 0,0 UV-I 77 W/m 3,3 C 8,5 C 4,0 km/h (1 Bft) 0,00 %
12.10.2015 18:02 8,4 C 70 % 1015,2 hPa 0,0 l/m 6,5 km/h (2 Bft) O 80 5 min 0,000 mm 0,0 UV-I 35 W/m 3,3 C 8,3 C 11,9 km/h (2 Bft) 0,00 %
12.10.2015 18:07 8,2 C 71 % 1015,2 hPa 0,0 l/m 4,0 km/h (1 Bft) O-NO 78 5 min 0,000 mm 0,0 UV-I 21 W/m 3,3 C 8,2 C 4,0 km/h (1 Bft) 0,00 %
12.10.2015 18:12 8,0 C 73 % 1015,3 hPa 0,0 l/m 6,8 km/h (2 Bft) O 98 0 min 0,000 mm 0,0 UV-I 11 W/m 3,5 C 7,7 C 7,9 km/h (2 Bft) 0,00 %
12.10.2015 18:17 7,7 C 73 % 1015,3 hPa 0,0 l/m 0,0 km/h (0 Bft) O-NO 75 0 min 0,000 mm 0,0 UV-I 5 W/m 3,2 C 7,7 C 0,0 km/h (0 Bft) 0,00 %
12.10.2015 18:22 7,4 C 74 % 1015,4 hPa 0,0 l/m 2,9 km/h (1 Bft) O 87 0 min 0,000 mm 0,0 UV-I 0 W/m 3,1 C 7,4 C 4,0 km/h (1 Bft) 0,00 %
12.10.2015 18:27 7,2 C 75 % 1015,3 hPa 0,0 l/m 2,2 km/h (1 Bft) O 85 0 min 0,000 mm 0,0 UV-I 0 W/m 3,1 C 7,2 C 4,0 km/h (1 Bft) 0,00 %
12.10.2015 18:32 7,0 C 76 % 1015,5 hPa 0,0 l/m 2,9 km/h (1 Bft) O 84 0 min 0,000 mm 0,0 UV-I 0 W/m 3,1 C 7,0 C 4,0 km/h (1 Bft) 0,00 %
12.10.2015 18:37 6,7 C 78 % 1015,4 hPa 0,0 l/m 0,7 km/h (0 Bft) O 101 0 min 0,000 mm 0,0 UV-I 0 W/m 3,1 C 6,7 C 4,0 km/h (1 Bft) 0,00 %
12.10.2015 18:42 6,5 C 78 % 1015,7 hPa 0,0 l/m 0,0 km/h (0 Bft) O-NO 71 0 min 0,000 mm 0,0 UV-I 0 W/m 2,9 C 6,5 C 0,0 km/h (0 Bft) 0,00 %
12.10.2015 18:47 6,3 C 78 % 1015,7 hPa 0,0 l/m 4,0 km/h (1 Bft) O 101 0 min 0,000 mm 0,0 UV-I 0 W/m 2,8 C 6,3 C 4,0 km/h (1 Bft) 0,00 %
12.10.2015 18:52 6,2 C 78 % 1015,5 hPa 0,0 l/m 0,4 km/h (0 Bft) O-NO 63 0 min 0,000 mm 0,0 UV-I 0 W/m 2,7 C 6,2 C 4,0 km/h (1 Bft) 0,00 %
12.10.2015 18:57 6,2 C 78 % 1015,7 hPa 0,0 l/m 0,7 km/h (0 Bft) O-NO 64 0 min 0,000 mm 0,0 UV-I 0 W/m 2,7 C 6,2 C 4,0 km/h (1 Bft) 0,00 %
12.10.2015 19:02 6,2 C 78 % 1015,9 hPa 0,0 l/m 2,9 km/h (1 Bft) O 80 0 min 0,000 mm 0,0 UV-I 0 W/m 2,7 C 6,2 C 4,0 km/h (1 Bft) 0,00 %
12.10.2015 19:07 6,2 C 77 % 1015,6 hPa 0,0 l/m 5,8 km/h (2 Bft) O 92 0 min 0,000 mm 0,0 UV-I 0 W/m 2,5 C 6,2 C 7,9 km/h (2 Bft) 0,00 %
12.10.2015 19:12 6,1 C 77 % 1015,8 hPa 0,0 l/m 7,9 km/h (2 Bft) O-SO 102 0 min 0,000 mm 0,0 UV-I 0 W/m 2,4 C 4,8 C 7,9 km/h (2 Bft) 0,00 %
12.10.2015 19:17 6,0 C 77 % 1015,7 hPa 0,0 l/m 4,3 km/h (1 Bft) O 93 0 min 0,000 mm 0,0 UV-I 0 W/m 2,3 C 6,0 C 7,9 km/h (2 Bft) 0,00 %
12.10.2015 19:22 5,9 C 79 % 1015,7 hPa 0,0 l/m 5,4 km/h (1 Bft) O 91 0 min 0,000 mm 0,0 UV-I 0 W/m 2,5 C 5,9 C 7,9 km/h (2 Bft) 0,00 %
12.10.2015 19:27 5,9 C 79 % 1015,5 hPa 0,0 l/m 9,0 km/h (2 Bft) O 93 0 min 0,000 mm 0,0 UV-I 0 W/m 2,5 C 3,8 C 11,9 km/h (2 Bft) 0,00 %
12.10.2015 19:32 5,8 C 80 % 1015,9 hPa 0,0 l/m 0,7 km/h (0 Bft) O-NO 66 0 min 0,000 mm 0,0 UV-I 0 W/m 2,6 C 5,8 C 4,0 km/h (1 Bft) 0,00 %
12.10.2015 19:37 5,7 C 80 % 1015,9 hPa 0,0 l/m 0,0 km/h (0 Bft) O 79 0 min 0,000 mm 0,0 UV-I 0 W/m 2,5 C 5,7 C 0,0 km/h (0 Bft) 0,00 %
12.10.2015 19:42 5,7 C 80 % 1015,6 hPa 0,0 l/m 1,8 km/h (1 Bft) O 96 0 min 0,000 mm 0,0 UV-I 0 W/m 2,5 C 5,7 C 4,0 km/h (1 Bft) 0,00 %
12.10.2015 19:47 5,6 C 80 % 1015,6 hPa 0,0 l/m 2,9 km/h (1 Bft) O-NO 70 0 min 0,000 mm 0,0 UV-I 0 W/m 2,4 C 5,6 C 4,0 km/h (1 Bft) 0,00 %
12.10.2015 19:52 5,5 C 80 % 1015,8 hPa 0,0 l/m 5,4 km/h (1 Bft) SO 129 0 min 0,000 mm 0,0 UV-I 0 W/m 2,3 C 5,5 C 7,9 km/h (2 Bft) 0,00 %
12.10.2015 19:57 5,4 C 80 % 1015,7 hPa 0,0 l/m 5,4 km/h (1 Bft) O 100 0 min 0,000 mm 0,0 UV-I 0 W/m 2,2 C 5,4 C 7,9 km/h (2 Bft) 0,00 %
12.10.2015 20:02 5,4 C 80 % 1015,7 hPa 0,0 l/m 4,3 km/h (1 Bft) O-NO 77 0 min 0,000 mm 0,0 UV-I 0 W/m 2,2 C 5,4 C 7,9 km/h (2 Bft) 0,00 %
12.10.2015 20:07 5,2 C 80 % 1015,9 hPa 0,0 l/m 4,3 km/h (1 Bft) O-SO 102 0 min 0,000 mm 0,0 UV-I 0 W/m 2,0 C 5,2 C 7,9 km/h (2 Bft) 0,00 %
12.10.2015 20:12 5,2 C 80 % 1016,0 hPa 0,0 l/m 4,0 km/h (1 Bft) O-NO 63 0 min 0,000 mm 0,0 UV-I 0 W/m 2,0 C 5,2 C 7,9 km/h (2 Bft) 0,00 %
12.10.2015 20:17 5,2 C 80 % 1016,1 hPa 0,0 l/m 3,2 km/h (1 Bft) O 97 0 min 0,000 mm 0,0 UV-I 0 W/m 2,0 C 5,2 C 4,0 km/h (1 Bft) 0,00 %
12.10.2015 20:22 5,2 C 80 % 1015,9 hPa 0,0 l/m 6,5 km/h (2 Bft) O-NO 72 0 min 0,000 mm 0,0 UV-I 0 W/m 2,0 C 5,1 C 7,9 km/h (2 Bft) 0,00 %
12.10.2015 20:27 5,2 C 80 % 1015,9 hPa 0,0 l/m 11,5 km/h (2 Bft) O 100 0 min 0,000 mm 0,0 UV-I 0 W/m 2,0 C 1,3 C 15,8 km/h (3 Bft) 0,00 %
12.10.2015 20:32 5,1 C 80 % 1015,9 hPa 0,0 l/m 8,3 km/h (2 Bft) O 80 0 min 0,000 mm 0,0 UV-I 0 W/m 1,9 C 3,5 C 11,9 km/h (2 Bft) 0,00 %
12.10.2015 20:37 5,0 C 80 % 1015,6 hPa 0,0 l/m 5,8 km/h (2 Bft) O 91 0 min 0,000 mm 0,0 UV-I 0 W/m 1,8 C 5,0 C 7,9 km/h (2 Bft) 0,00 %
12.10.2015 20:42 5,0 C 81 % 1015,7 hPa 0,0 l/m 4,0 km/h (1 Bft) O-NO 72 0 min 0,000 mm 0,0 UV-I 0 W/m 2,0 C 5,0 C 7,9 km/h (2 Bft) 0,00 %
12.10.2015 20:47 4,9 C 81 % 1015,9 hPa 0,0 l/m 7,9 km/h (2 Bft) O 80 0 min 0,000 mm 0,0 UV-I 0 W/m 1,9 C 3,6 C 7,9 km/h (2 Bft) 0,00 %
12.10.2015 20:52 4,9 C 79 % 1015,9 hPa 0,0 l/m 2,9 km/h (1 Bft) O-NO 64 0 min 0,000 mm 0,0 UV-I 0 W/m 1,6 C 4,9 C 7,9 km/h (2 Bft) 0,00 %
12.10.2015 20:57 4,9 C 80 % 1015,9 hPa 0,0 l/m 5,8 km/h (2 Bft) O-NO 61 0 min 0,000 mm 0,0 UV-I 0 W/m 1,7 C 4,9 C 7,9 km/h (2 Bft) 0,00 %
12.10.2015 21:02 4,9 C 80 % 1015,7 hPa 0,0 l/m 0,0 km/h (0 Bft) O 97 0 min 0,000 mm 0,0 UV-I 0 W/m 1,7 C 4,9 C 0,0 km/h (0 Bft) 0,00 %
12.10.2015 21:07 4,8 C 80 % 1015,8 hPa 0,0 l/m 6,8 km/h (2 Bft) O-NO 77 0 min 0,000 mm 0,0 UV-I 0 W/m 1,6 C 4,5 C 7,9 km/h (2 Bft) 0,00 %
12.10.2015 21:12 4,7 C 80 % 1015,6 hPa 0,0 l/m 8,3 km/h (2 Bft) O 99 0 min 0,000 mm 0,0 UV-I 0 W/m 1,6 C 3,0 C 15,8 km/h (3 Bft) 0,00 %
12.10.2015 21:17 4,7 C 80 % 1015,7 hPa 0,0 l/m 5,8 km/h (2 Bft) O 81 0 min 0,000 mm 0,0 UV-I 0 W/m 1,6 C 4,7 C 7,9 km/h (2 Bft) 0,00 %
12.10.2015 21:22 4,6 C 80 % 1015,8 hPa 0,0 l/m 10,8 km/h (2 Bft) O-SO 118 0 min 0,000 mm 0,0 UV-I 0 W/m 1,5 C 1,1 C 15,8 km/h (3 Bft) 0,00 %
12.10.2015 21:27 4,6 C 80 % 1015,5 hPa 0,0 l/m 7,2 km/h (2 Bft) O 92 0 min 0,000 mm 0,0 UV-I 0 W/m 1,5 C 3,9 C 11,9 km/h (2 Bft) 0,00 %
12.10.2015 21:32 4,5 C 80 % 1015,7 hPa 0,0 l/m 11,9 km/h (2 Bft) O-SO 115 0 min 0,000 mm 0,0 UV-I 0 W/m 1,4 C 0,2 C 15,8 km/h (3 Bft) 0,00 %
12.10.2015 21:37 4,5 C 80 % 1015,5 hPa 0,0 l/m 13,3 km/h (3 Bft) O-SO 111 0 min 0,000 mm 0,0 UV-I 0 W/m 1,4 C -0,6 C 15,8 km/h (3 Bft) 0,00 %
12.10.2015 21:42 4,4 C 80 % 1015,5 hPa 0,0 l/m 4,3 km/h (1 Bft) O 94 0 min 0,000 mm 0,0 UV-I 0 W/m 1,3 C 4,4 C 7,9 km/h (2 Bft) 0,00 %
12.10.2015 21:47 4,4 C 80 % 1015,5 hPa 0,0 l/m 7,2 km/h (2 Bft) O 91 0 min 0,000 mm 0,0 UV-I 0 W/m 1,3 C 3,7 C 11,9 km/h (2 Bft) 0,00 %
12.10.2015 21:52 4,3 C 80 % 1015,5 hPa 0,0 l/m 8,3 km/h (2 Bft) O 93 0 min 0,000 mm 0,0 UV-I 0 W/m 1,2 C 2,6 C 11,9 km/h (2 Bft) 0,00 %
12.10.2015 21:57 4,3 C 80 % 1015,8 hPa 0,0 l/m 4,3 km/h (1 Bft) O 100 0 min 0,000 mm 0,0 UV-I 0 W/m 1,2 C 4,3 C 7,9 km/h (2 Bft) 0,00 %
12.10.2015 22:02 4,2 C 81 % 1015,5 hPa 0,0 l/m 2,2 km/h (1 Bft) O-SO 104 0 min 0,000 mm 0,0 UV-I 0 W/m 1,2 C 4,2 C 7,9 km/h (2 Bft) 0,00 %
12.10.2015 22:07 4,2 C 81 % 1015,6 hPa 0,0 l/m 10,8 km/h (2 Bft) O 90 0 min 0,000 mm 0,0 UV-I 0 W/m 1,2 C 0,6 C 15,8 km/h (3 Bft) 0,00 %
12.10.2015 22:12 4,1 C 81 % 1015,6 hPa 0,0 l/m 9,4 km/h (2 Bft) O 98 0 min 0,000 mm 0,0 UV-I 0 W/m 1,1 C 1,5 C 11,9 km/h (2 Bft) 0,00 %
12.10.2015 22:17 4,0 C 81 % 1015,4 hPa 0,0 l/m 9,4 km/h (2 Bft) O-NO 78 0 min 0,000 mm 0,0 UV-I 0 W/m 1,0 C 1,4 C 11,9 km/h (2 Bft) 0,00 %
12.10.2015 22:22 3,9 C 82 % 1015,7 hPa 0,0 l/m 10,4 km/h (2 Bft) O-SO 105 0 min 0,000 mm 0,0 UV-I 0 W/m 1,1 C 0,6 C 11,9 km/h (2 Bft) 0,00 %
12.10.2015 22:27 3,9 C 83 % 1015,7 hPa 0,0 l/m 11,9 km/h (2 Bft) O 87 0 min 0,000 mm 0,0 UV-I 0 W/m 1,3 C -0,4 C 19,8 km/h (3 Bft) 0,00 %
12.10.2015 22:32 3,8 C 83 % 1015,7 hPa 0,0 l/m 9,7 km/h (2 Bft) O-SO 109 0 min 0,000 mm 0,0 UV-I 0 W/m 1,2 C 1,0 C 11,9 km/h (2 Bft) 0,00 %
12.10.2015 22:37 3,8 C 83 % 1015,5 hPa 0,0 l/m 14,8 km/h (3 Bft) O-SO 103 0 min 0,000 mm 0,0 UV-I 0 W/m 1,2 C -2,3 C 19,8 km/h (3 Bft) 0,00 %
12.10.2015 22:42 3,8 C 83 % 1015,8 hPa 0,0 l/m 9,4 km/h (2 Bft) O 85 0 min 0,000 mm 0,0 UV-I 0 W/m 1,2 C 1,2 C 15,8 km/h (3 Bft) 0,00 %
12.10.2015 22:47 3,8 C 82 % 1015,6 hPa 0,0 l/m 13,3 km/h (3 Bft) O 94 0 min 0,000 mm 0,0 UV-I 0 W/m 1,0 C -1,4 C 19,8 km/h (3 Bft) 0,00 %
12.10.2015 22:52 3,7 C 82 % 1015,8 hPa 0,0 l/m 10,4 km/h (2 Bft) O-SO 111 0 min 0,000 mm 0,0 UV-I 0 W/m 0,9 C 0,3 C 11,9 km/h (2 Bft) 0,00 %
12.10.2015 22:57 3,6 C 83 % 1015,7 hPa 0,0 l/m 3,2 km/h (1 Bft) N 358 0 min 0,000 mm 0,0 UV-I 0 W/m 1,0 C 3,6 C 4,0 km/h (1 Bft) 0,00 %
12.10.2015 23:02 3,5 C 83 % 1015,6 hPa 0,0 l/m 14,4 km/h (3 Bft) O 88 0 min 0,000 mm 0,0 UV-I 0 W/m 0,9 C -2,4 C 19,8 km/h (3 Bft) 0,00 %
12.10.2015 23:07 3,4 C 82 % 1015,4 hPa 0,0 l/m 10,4 km/h (2 Bft) O-NO 73 0 min 0,000 mm 0,0 UV-I 0 W/m 0,6 C 0,0 C 11,9 km/h (2 Bft) 0,00 %
12.10.2015 23:12 3,3 C 82 % 1015,5 hPa 0,0 l/m 6,8 km/h (2 Bft) O 95 0 min 0,000 mm 0,0 UV-I 0 W/m 0,5 C 2,9 C 11,9 km/h (2 Bft) 0,00 %
12.10.2015 23:17 3,2 C 83 % 1015,6 hPa 0,0 l/m 8,3 km/h (2 Bft) SO 145 0 min 0,000 mm 0,0 UV-I 0 W/m 0,6 C 1,5 C 11,9 km/h (2 Bft) 0,00 %
12.10.2015 23:22 3,1 C 83 % 1015,6 hPa 0,0 l/m 7,2 km/h (2 Bft) O 83 0 min 0,000 mm 0,0 UV-I 0 W/m 0,5 C 2,3 C 11,9 km/h (2 Bft) 0,00 %
12.10.2015 23:27 3,0 C 84 % 1015,8 hPa 0,0 l/m 14,8 km/h (3 Bft) O 91 0 min 0,000 mm 0,0 UV-I 0 W/m 0,6 C -3,2 C 19,8 km/h (3 Bft) 0,00 %
12.10.2015 23:32 2,9 C 84 % 1015,5 hPa 0,0 l/m 10,8 km/h (2 Bft) O-NO 62 0 min 0,000 mm 0,0 UV-I 0 W/m 0,5 C -0,8 C 15,8 km/h (3 Bft) 0,00 %
12.10.2015 23:37 2,8 C 84 % 1015,6 hPa 0,0 l/m 7,2 km/h (2 Bft) O-NO 76 0 min 0,000 mm 0,0 UV-I 0 W/m 0,4 C 2,0 C 11,9 km/h (2 Bft) 0,00 %
12.10.2015 23:42 2,7 C 84 % 1015,3 hPa 0,0 l/m 11,5 km/h (2 Bft) O 101 0 min 0,000 mm 0,0 UV-I 0 W/m 0,3 C -1,6 C 11,9 km/h (2 Bft) 0,00 %
12.10.2015 23:47 2,6 C 84 % 1015,6 hPa 0,0 l/m 15,8 km/h (3 Bft) O-SO 103 0 min 0,000 mm 0,0 UV-I 0 W/m 0,2 C -4,3 C 19,8 km/h (3 Bft) 0,00 %
12.10.2015 23:52 2,5 C 84 % 1015,4 hPa 0,0 l/m 9,4 km/h (2 Bft) O-NO 74 0 min 0,000 mm 0,0 UV-I 0 W/m 0,1 C -0,2 C 11,9 km/h (2 Bft) 0,00 %
12.10.2015 23:57 2,4 C 84 % 1015,4 hPa 0,0 l/m 18,4 km/h (3 Bft) O-SO 115 0 min 0,000 mm 0,0 UV-I 0 W/m -0,0 C -5,8 C 24,1 km/h (4 Bft) 0,00 %
_ Min-Zeit 06:51 16:01 17:12 - 00:01 - - - - - - 07:46 23:57 00:01 00:01
Minimum _ -1,8 C 60 % 1014,0 hPa - 0,0 km/h (0 Bft) - - - - - - -3,0 C -5,8 C 0,0 km/h (0 Bft) 0,00 %
_ Max-Zeit 16:06 07:01 08:16 00:01 23:57 - - 16:12 00:01 11:41 14:41 17:42 15:41 23:57 00:01
Maximum _ 9,9 C 93 % 1017,1 hPa 0,0 l/m 18,4 km/h
O-SO (3 Bft)
- - 6 min 0,000 mm 2,0 UV-I 642 W/m 3,8 C 9,8 C 24,1 km/h
O-SO (4 Bft)
0,00 %
Durchschnitt _ 4,2 C 76 % 1015,9 hPa #0,0 l/m 3,5 km/h (1 Bft) O - #7:16 h #0,000 mm 1,2 UV-I 332 W/m 0,2 C 3,6 C 5,4 km/h (1 Bft) 0,00 %